Norwegian Dawn — C6FT7 — position and weather

sailwx.info

Track history (hours):
 
Tides and Currents Weather Stations Pressure Air Temp Water Temp Dewpoint Dewpoint Depression Visibility Wind Speed Wind Dir Waves Ship Positions

Norwegian Dawn

Operator: Norwegian Cruise Line

Last reported at 2020-Sep-11 03:55 UTC. Time now 2020-Sep-25 17:14 UTC.
Position N 37°04' E 015°33'.
Warning: this ship's position is 14 days out of date.

Type: Ship. MMSI: 311307000.

Date/timePositionNaut miles runAvg speedWind from/ knotsBaromVisibWave heightAir tempDewpointWater temp
2020-Sep-11 03:55N 37°04' E 015°33'1 3.5
2020-Sep-11 03:30N 37°04' E 015°34'6 1.3
2020-Sep-10 23:03N 37°09' E 015°38'2 0.7
2020-Sep-10 20:37N 37°07' E 015°38'4 3.3
2020-Sep-10 19:18N 37°12' E 015°37'9 1.2
2020-Sep-10 11:30N 37°21' E 015°34'17 7.0
2020-Sep-10 09:07N 37°07' E 015°46'15 3.6
2020-Sep-10 05:00N 37°18' E 015°34'8 4.6
2020-Sep-10 03:18N 37°10' E 015°36'11 2.6
2020-Sep-09 23:00N 37°21' E 015°32'9 1.6
2020-Sep-09 17:43N 37°12' E 015°33'1 0.7
2020-Sep-09 15:59N 37°13' E 015°35'1 0.2
2020-Sep-09 09:12N 37°11' E 015°34'0 0.0
2020-Sep-09 06:00N 37°11' E 015°34'2 0.7
2020-Sep-09 03:00N 37°11' E 015°36'2 1.8
2020-Sep-09 02:00N 37°11' E 015°38'0 0.2
2020-Sep-09 00:17N 37°11' E 015°39'0 0.6
2020-Sep-08 23:29N 37°11' E 015°38'3 0.2
2020-Sep-08 05:22N 37°12' E 015°35'  
2020-Sep-05 04:29N 37°13' E 015°30'4 4.0
2020-Sep-05 03:32N 37°13' E 015°35'0 4.1
2020-Sep-05 03:25N 37°13' E 015°35'2 3.8
2020-Sep-05 02:59N 37°13' E 015°37'  
Track history (hours):
 
Tides and Currents Weather Stations Pressure Air Temp Water Temp Dewpoint Dewpoint Depression Visibility Wind Speed Wind Dir Waves Ship Positions

Norwegian Dawn

Operator: Norwegian Cruise Line

Last reported at 2020-Sep-11 03:55 UTC. Time now 2020-Sep-25 17:14 UTC.
Position N 37°04' E 015°33'.
Warning: this ship's position is 14 days out of date.

Type: Ship. MMSI: 311307000.

Date/timePositionNaut miles runAvg speedWind from/ knotsBaromVisibWave heightAir tempDewpointWater temp
2020-Sep-11 03:55N 37°04' E 015°33'1 3.5
2020-Sep-11 03:30N 37°04' E 015°34'6 1.3
2020-Sep-10 23:03N 37°09' E 015°38'2 0.7
2020-Sep-10 20:37N 37°07' E 015°38'4 3.3
2020-Sep-10 19:18N 37°12' E 015°37'9 1.2
2020-Sep-10 11:30N 37°21' E 015°34'17 7.0
2020-Sep-10 09:07N 37°07' E 015°46'15 3.6
2020-Sep-10 05:00N 37°18' E 015°34'8 4.6
2020-Sep-10 03:18N 37°10' E 015°36'11 2.6
2020-Sep-09 23:00N 37°21' E 015°32'9 1.6
2020-Sep-09 17:43N 37°12' E 015°33'1 0.7
2020-Sep-09 15:59N 37°13' E 015°35'1 0.2
2020-Sep-09 09:12N 37°11' E 015°34'0 0.0
2020-Sep-09 06:00N 37°11' E 015°34'2 0.7
2020-Sep-09 03:00N 37°11' E 015°36'2 1.8
2020-Sep-09 02:00N 37°11' E 015°38'0 0.2
2020-Sep-09 00:17N 37°11' E 015°39'0 0.6
2020-Sep-08 23:29N 37°11' E 015°38'3 0.2
2020-Sep-08 05:22N 37°12' E 015°35'  
2020-Sep-05 04:29N 37°13' E 015°30'4 4.0
2020-Sep-05 03:32N 37°13' E 015°35'0 4.1
2020-Sep-05 03:25N 37°13' E 015°35'2 3.8
2020-Sep-05 02:59N 37°13' E 015°37'  

Dump ship's entire track history